Time;durP1;ratioP1;P1;durP2;ratioP2;P2;SDS_P1;SDS_P2;PMS_P1;PMS_P2;Temp;Humidity;BMP_temperature;BMP_pressure;BME280_temperature;BME280_humidity;BME280_pressure;Samples;Min_cycle;Max_cycle;Signal;HPM_P1;HPM_P2
2023/09/01 00:02:30;;;;;;;1.58;0.93;;;12.80;99.90;;;;;;2586083;54;20053;31
2023/09/01 00:05:14;;;;;;;2.83;0.90;;;12.70;99.90;;;;;;2586064;54;20026;31
2023/09/01 00:07:47;;;;;;;2.25;1.10;;;12.70;99.90;;;;;;2586269;54;20026;31
2023/09/01 00:10:21;;;;;;;2.97;1.67;;;12.60;99.90;;;;;;2604492;46;20057;31
2023/09/01 00:13:06;;;;;;;2.72;1.50;;;12.60;99.90;;;;;;2585876;54;20776;31
2023/09/01 00:15:40;;;;;;;2.25;1.38;;;12.60;99.90;;;;;;2585730;54;20756;31
2023/09/01 00:18:12;;;;;;;2.90;1.50;;;12.60;99.90;;;;;;2586112;54;20914;31
2023/09/01 00:20:50;;;;;;;3.20;1.80;;;12.60;99.90;;;;;;2586091;54;20030;31
2023/09/01 00:23:21;;;;;;;3.45;1.30;;;12.60;99.90;;;;;;2585955;54;20023;31
2023/09/01 00:25:58;;;;;;;3.78;1.50;;;12.60;99.90;;;;;;2586116;54;20027;31
2023/09/01 00:28:29;;;;;;;3.30;1.05;;;12.60;99.90;;;;;;2585966;54;20042;31
2023/09/01 00:31:04;;;;;;;4.68;1.52;;;12.60;99.90;;;;;;2586173;54;20026;31
2023/09/01 00:33:37;;;;;;;2.90;1.75;;;12.60;99.90;;;;;;2585907;54;20089;31
2023/09/01 00:36:14;;;;;;;3.83;1.27;;;12.60;99.90;;;;;;2586168;54;20856;31
2023/09/01 00:38:45;;;;;;;7.40;1.70;;;12.60;99.90;;;;;;2585913;54;20962;31
2023/09/01 00:41:17;;;;;;;2.38;1.13;;;12.60;99.90;;;;;;2586191;54;20769;31
2023/09/01 00:43:49;;;;;;;4.50;1.70;;;12.60;99.90;;;;;;2585780;54;20882;31
2023/09/01 00:46:22;;;;;;;2.95;1.50;;;12.70;99.90;;;;;;2604434;46;20104;31
2023/09/01 00:48:54;;;;;;;1.85;1.00;;;12.70;99.90;;;;;;2604742;46;20030;31
2023/09/01 00:51:30;;;;;;;2.25;1.40;;;12.70;99.90;;;;;;2586099;54;20027;31
2023/09/01 00:54:02;;;;;;;2.80;1.60;;;12.70;99.90;;;;;;2585958;54;20942;31
2023/09/01 00:56:34;;;;;;;2.42;1.20;;;12.70;99.90;;;;;;2585989;54;20269;31
2023/09/01 00:59:07;;;;;;;2.80;1.40;;;12.80;99.90;;;;;;2586066;54;20058;31
2023/09/01 01:01:40;;;;;;;2.35;1.05;;;12.80;99.90;;;;;;2586018;54;20944;31
2023/09/01 01:04:13;;;;;;;1.75;1.05;;;12.80;99.90;;;;;;2585933;54;20925;31
2023/09/01 01:06:53;;;;;;;2.28;1.35;;;12.80;99.90;;;;;;2586071;54;20032;31
2023/09/01 01:09:30;;;;;;;2.30;1.25;;;12.90;99.90;;;;;;2585847;54;20108;31
2023/09/01 01:12:07;;;;;;;2.63;1.13;;;12.90;99.90;;;;;;2585984;54;20059;31
2023/09/01 01:14:41;;;;;;;1.92;0.80;;;12.90;99.90;;;;;;2585927;54;20132;31
2023/09/01 01:17:14;;;;;;;1.60;1.00;;;12.90;99.90;;;;;;2585667;54;20041;31
2023/09/01 01:19:51;;;;;;;2.00;1.20;;;12.90;99.90;;;;;;2586131;54;20030;31
2023/09/01 01:22:36;;;;;;;2.90;1.45;;;13.00;99.90;;;;;;2604154;47;20037;31
2023/09/01 01:25:11;;;;;;;2.40;1.35;;;13.00;99.90;;;;;;2585887;54;20851;31
2023/09/01 01:27:42;;;;;;;3.22;1.52;;;13.00;99.90;;;;;;2585765;54;20756;31
2023/09/01 01:30:16;;;;;;;3.40;1.15;;;13.00;99.90;;;;;;2585685;54;20775;31
2023/09/01 01:32:49;;;;;;;6.07;2.00;;;13.00;99.90;;;;;;2586010;54;20767;31
2023/09/01 01:35:22;;;;;;;5.63;1.58;;;13.00;99.90;;;;;;2585554;54;20032;31
2023/09/01 01:37:57;;;;;;;4.25;1.90;;;13.00;99.90;;;;;;2585867;54;20034;31
2023/09/01 01:40:34;;;;;;;5.40;2.05;;;13.00;99.90;;;;;;2585985;54;20771;31
2023/09/01 01:43:10;;;;;;;4.55;1.70;;;13.00;99.90;;;;;;2585707;54;20964;31
2023/09/01 01:45:44;;;;;;;3.55;1.52;;;13.00;99.90;;;;;;2603957;47;20897;31
2023/09/01 01:48:18;;;;;;;;;;;13.00;99.90;;;;;;2585877;54;20036;31
2023/09/01 01:50:54;;;;;;;10.50;2.50;;;13.00;99.90;;;;;;2585755;54;20730;31
2023/09/01 01:53:27;;;;;;;3.70;2.00;;;13.00;99.90;;;;;;2585620;54;20332;31
2023/09/01 01:56:02;;;;;;;5.45;2.22;;;12.90;99.90;;;;;;2585601;54;20031;31
2023/09/01 01:58:34;;;;;;;2.88;1.52;;;12.90;99.90;;;;;;2585822;54;20740;31
2023/09/01 02:01:08;;;;;;;1.92;1.45;;;12.90;99.90;;;;;;2585483;54;20153;31
2023/09/01 02:03:40;;;;;;;3.92;1.92;;;12.90;99.90;;;;;;2585544;54;20798;31
2023/09/01 02:06:14;;;;;;;3.10;1.90;;;12.90;99.90;;;;;;2603673;47;20508;31
2023/09/01 02:08:48;;;;;;;3.00;1.63;;;12.90;99.90;;;;;;2585685;54;20133;31
2023/09/01 02:11:27;;;;;;;2.20;1.40;;;12.90;99.90;;;;;;2603748;47;20026;31
2023/09/01 02:14:00;;;;;;;2.65;1.10;;;12.90;99.90;;;;;;2585684;54;20254;31
2023/09/01 02:16:32;;;;;;;5.10;1.70;;;12.90;99.90;;;;;;2604939;46;21003;31
2023/09/01 02:19:08;;;;;;;3.40;1.77;;;12.90;99.90;;;;;;2604736;46;20934;31
2023/09/01 02:21:41;;;;;;;3.13;1.48;;;12.90;99.90;;;;;;2604866;46;20112;31
2023/09/01 02:24:13;;;;;;;2.15;1.23;;;12.90;99.90;;;;;;2586085;54;20100;31
2023/09/01 02:26:49;;;;;;;2.40;1.20;;;12.90;99.90;;;;;;2604722;46;20027;31
2023/09/01 02:29:23;;;;;;;3.15;1.10;;;12.90;99.90;;;;;;2604789;46;20774;31
2023/09/01 02:31:55;;;;;;;1.20;0.90;;;12.90;99.90;;;;;;2586545;54;20769;31
2023/09/01 02:34:28;;;;;;;4.90;1.50;;;12.90;99.90;;;;;;2702463;39;20393;31
2023/09/01 02:37:00;;;;;;;4.00;1.50;;;12.80;99.90;;;;;;2586366;54;20031;31
2023/09/01 02:39:33;;;;;;;3.85;1.50;;;12.80;99.90;;;;;;2586608;54;20072;31
2023/09/01 02:42:10;;;;;;;2.00;1.30;;;12.80;99.90;;;;;;2604824;46;20026;31
2023/09/01 02:44:41;;;;;;;2.35;1.23;;;12.80;99.90;;;;;;2586477;54;20274;31
2023/09/01 02:47:14;;;;;;;4.72;1.30;;;12.80;99.90;;;;;;2586371;54;20033;31
2023/09/01 02:49:46;;;;;;;7.65;1.40;;;12.70;99.90;;;;;;2586438;54;20922;31
2023/09/01 02:52:18;;;;;;;3.53;1.75;;;12.70;99.90;;;;;;2586404;54;20739;31
2023/09/01 02:54:50;;;;;;;2.08;1.08;;;12.70;99.90;;;;;;2586275;54;20769;31
2023/09/01 02:57:25;;;;;;;2.30;1.70;;;12.60;99.90;;;;;;2586269;54;20923;31
2023/09/01 02:59:59;;;;;;;3.50;1.38;;;12.60;99.90;;;;;;2604562;46;20026;31
2023/09/01 03:02:31;;;;;;;1.80;1.05;;;12.50;99.90;;;;;;2604939;46;20908;31
2023/09/01 03:05:05;;;;;;;2.45;1.33;;;12.50;99.90;;;;;;2604646;46;20039;31
2023/09/01 03:07:37;;;;;;;4.20;1.15;;;12.40;99.90;;;;;;2586392;54;20780;31
2023/09/01 03:10:12;;;;;;;3.30;1.83;;;12.40;99.90;;;;;;2586355;54;20026;31
2023/09/01 03:12:48;;;;;;;5.50;1.80;;;12.40;99.90;;;;;;2586496;54;20026;31
2023/09/01 03:15:22;;;;;;;3.13;1.67;;;12.40;99.90;;;;;;2586274;54;20902;31
2023/09/01 03:17:56;;;;;;;2.90;1.75;;;12.30;99.90;;;;;;2604639;46;20027;31
2023/09/01 03:20:28;;;;;;;5.10;2.20;;;12.30;99.90;;;;;;2585784;54;20030;31
2023/09/01 03:23:01;;;;;;;3.85;2.13;;;12.20;99.90;;;;;;2586141;54;20765;31
2023/09/01 03:25:36;;;;;;;3.20;2.10;;;12.20;99.90;;;;;;2585917;54;20973;31
2023/09/01 03:28:12;;;;;;;3.13;1.77;;;12.20;99.90;;;;;;2586343;54;20028;31
2023/09/01 03:30:44;;;;;;;4.00;2.40;;;12.20;99.90;;;;;;2586354;54;21015;31
2023/09/01 03:33:17;;;;;;;2.95;1.63;;;12.10;99.90;;;;;;2586258;54;20027;31
2023/09/01 03:35:49;;;;;;;4.63;1.77;;;12.10;99.90;;;;;;2586101;54;20026;31
2023/09/01 03:38:22;;;;;;;3.75;1.70;;;12.10;99.90;;;;;;2586447;54;20889;31
2023/09/01 03:40:55;;;;;;;2.97;1.85;;;12.10;99.90;;;;;;2604438;46;20034;31
2023/09/01 03:43:30;;;;;;;3.05;1.60;;;12.00;99.90;;;;;;2585957;54;20863;31
2023/09/01 03:46:02;;;;;;;5.67;1.53;;;11.90;99.90;;;;;;2586287;54;20831;31
2023/09/01 03:48:36;;;;;;;2.88;2.03;;;11.90;99.90;;;;;;2586244;54;20097;31
2023/09/01 03:51:08;;;;;;;3.33;1.52;;;11.90;99.90;;;;;;2586236;54;20112;31
2023/09/01 03:53:41;;;;;;;2.25;1.48;;;11.90;99.90;;;;;;2586377;54;20875;31
2023/09/01 03:56:17;;;;;;;3.25;2.00;;;11.90;99.90;;;;;;2604545;46;20858;31
2023/09/01 03:58:51;;;;;;;6.40;1.92;;;11.90;99.90;;;;;;2585966;54;20052;31
2023/09/01 04:01:25;;;;;;;2.90;1.53;;;11.90;99.90;;;;;;2586044;54;20038;31
2023/09/01 04:03:59;;;;;;;5.30;1.60;;;11.90;99.90;;;;;;2604730;46;20959;31
2023/09/01 04:06:33;;;;;;;4.25;1.90;;;11.80;99.90;;;;;;2585548;54;21028;31
2023/09/01 04:09:08;;;;;;;4.88;1.73;;;11.80;99.90;;;;;;2586161;54;20030;31
2023/09/01 04:11:42;;;;;;;4.55;1.73;;;11.80;99.90;;;;;;2585730;54;20116;31
2023/09/01 04:14:18;;;;;;;4.00;2.10;;;11.80;99.90;;;;;;2604451;46;20910;31
2023/09/01 04:16:50;;;;;;;3.50;1.90;;;11.80;99.90;;;;;;2604272;46;20257;31
2023/09/01 04:19:22;;;;;;;2.58;1.80;;;11.80;99.90;;;;;;2585834;54;20054;31
2023/09/01 04:21:55;;;;;;;2.90;1.50;;;11.70;99.90;;;;;;2586044;54;20030;31
2023/09/01 04:24:27;;;;;;;6.20;2.10;;;11.70;99.90;;;;;;2585985;54;20054;31
2023/09/01 04:27:00;;;;;;;5.20;1.75;;;11.70;99.90;;;;;;2604437;46;20037;31
2023/09/01 04:29:36;;;;;;;3.13;1.75;;;11.70;99.90;;;;;;2586038;54;20031;31
2023/09/01 04:32:09;;;;;;;5.55;1.67;;;11.70;99.90;;;;;;2585886;54;20050;31
2023/09/01 04:34:41;;;;;;;8.98;1.75;;;11.80;99.90;;;;;;2585942;54;20085;31
2023/09/01 04:37:13;;;;;;;4.70;1.83;;;11.80;99.90;;;;;;2586066;54;20758;31
2023/09/01 04:39:45;;;;;;;5.45;2.08;;;11.90;99.90;;;;;;2585761;54;20870;31
2023/09/01 04:42:17;;;;;;;8.10;1.95;;;12.00;99.90;;;;;;2604698;46;20856;31
2023/09/01 04:44:52;;;;;;;3.30;1.75;;;12.10;99.90;;;;;;2586052;54;20963;31
2023/09/01 04:47:27;;;;;;;5.70;2.28;;;12.20;99.90;;;;;;2586176;54;20027;31
2023/09/01 04:50:00;;;;;;;7.40;1.70;;;12.30;99.90;;;;;;2586006;54;20877;31
2023/09/01 04:52:34;;;;;;;4.63;1.55;;;12.50;99.90;;;;;;2604311;46;20245;31
2023/09/01 04:55:14;;;;;;;4.38;1.77;;;12.60;99.90;;;;;;2585833;54;20050;31
2023/09/01 04:57:48;;;;;;;2.30;1.30;;;12.80;99.90;;;;;;2585883;54;20029;31
2023/09/01 05:00:22;;;;;;;2.55;1.30;;;13.00;99.90;;;;;;2585945;54;20242;31
2023/09/01 05:02:54;;;;;;;4.32;1.55;;;13.10;99.90;;;;;;2585977;54;20941;31
2023/09/01 05:05:27;;;;;;;3.03;1.48;;;13.30;99.90;;;;;;2585863;54;19935;31
2023/09/01 05:08:00;;;;;;;4.90;1.40;;;13.40;99.90;;;;;;2585842;54;20032;31
2023/09/01 05:10:34;;;;;;;3.65;1.40;;;13.60;99.90;;;;;;2585771;54;20022;31
2023/09/01 05:13:08;;;;;;;3.72;1.45;;;13.70;99.90;;;;;;2590698;47;20026;31
2023/09/01 05:15:44;;;;;;;2.80;0.90;;;13.80;99.90;;;;;;2586227;54;20879;31
2023/09/01 05:18:18;;;;;;;3.22;1.10;;;14.00;99.90;;;;;;2603544;47;21386;31
2023/09/01 05:20:54;;;;;;;4.15;1.23;;;14.10;99.90;;;;;;2604163;47;20849;31
2023/09/01 05:23:31;;;;;;;1.88;1.00;;;14.20;99.90;;;;;;2585171;54;20772;31
2023/09/01 05:26:05;;;;;;;3.20;0.90;;;14.30;99.90;;;;;;2585637;54;20760;31
2023/09/01 05:28:38;;;;;;;1.90;0.90;;;14.40;99.90;;;;;;2585815;54;20778;31
2023/09/01 05:31:13;;;;;;;1.95;1.13;;;14.60;99.90;;;;;;2585620;54;20052;31
2023/09/01 05:33:51;;;;;;;2.10;0.90;;;14.80;99.90;;;;;;2585756;54;20026;31
2023/09/01 05:36:23;;;;;;;4.82;1.23;;;14.90;99.90;;;;;;2585649;54;20036;31
2023/09/01 05:38:56;;;;;;;2.90;1.10;;;15.10;99.90;;;;;;2585941;54;20779;31
2023/09/01 05:41:29;;;;;;;2.25;1.05;;;15.30;99.90;;;;;;2585774;54;20022;31
2023/09/01 05:44:02;;;;;;;2.50;0.80;;;15.40;99.90;;;;;;2604087;47;19990;31
2023/09/01 05:46:41;;;;;;;3.45;1.40;;;15.70;99.90;;;;;;2585914;54;20077;31
2023/09/01 05:49:16;;;;;;;4.45;1.38;;;15.90;99.90;;;;;;2585995;54;20727;31
2023/09/01 05:51:48;;;;;;;3.00;0.90;;;16.10;99.90;;;;;;2586388;54;20053;31
2023/09/01 05:54:20;;;;;;;2.20;0.90;;;16.40;99.90;;;;;;2586556;54;20262;31
2023/09/01 05:56:52;;;;;;;6.30;1.20;;;16.70;99.90;;;;;;2586398;54;21106;31
2023/09/01 05:59:25;;;;;;;4.65;0.90;;;16.90;99.90;;;;;;2586518;54;20031;31
2023/09/01 06:02:02;;;;;;;2.90;1.25;;;17.20;99.90;;;;;;2586693;54;20057;31
2023/09/01 06:04:33;;;;;;;2.50;1.20;;;17.40;99.90;;;;;;2586445;54;20089;31
2023/09/01 06:07:08;;;;;;;2.55;1.20;;;17.50;99.90;;;;;;2604741;46;20058;31
2023/09/01 06:09:41;;;;;;;3.23;1.40;;;17.80;99.90;;;;;;2605010;46;20067;31
2023/09/01 06:12:15;;;;;;;2.97;1.00;;;18.00;99.90;;;;;;2604770;46;20023;31
2023/09/01 06:14:47;;;;;;;2.30;0.90;;;18.20;99.90;;;;;;2586504;54;20029;31
2023/09/01 06:17:23;;;;;;;3.88;1.27;;;18.40;99.90;;;;;;2586264;54;20972;31
2023/09/01 06:20:12;;;;;;;2.63;0.90;;;18.60;99.90;;;;;;2586643;54;20034;31
2023/09/01 06:22:53;;;;;;;1.77;1.20;;;18.90;99.90;;;;;;2586381;54;20026;31
2023/09/01 06:25:26;;;;;;;5.30;1.60;;;19.10;99.90;;;;;;2604932;46;20905;31
2023/09/01 06:27:59;;;;;;;4.03;1.30;;;19.40;99.90;;;;;;2586579;54;20758;31
2023/09/01 06:30:32;;;;;;;2.33;1.23;;;19.60;99.90;;;;;;2586480;54;20033;31
2023/09/01 06:33:08;;;;;;;2.78;1.35;;;19.80;99.90;;;;;;2586437;54;20782;31
2023/09/01 06:35:39;;;;;;;2.25;1.00;;;20.00;99.90;;;;;;2586276;54;20878;31
2023/09/01 06:38:11;;;;;;;2.20;1.10;;;20.10;99.90;;;;;;2604886;46;20266;31
2023/09/01 06:40:43;;;;;;;1.63;0.83;;;20.30;99.90;;;;;;2586483;54;20855;31
2023/09/01 06:43:16;;;;;;;1.70;0.90;;;20.40;99.90;;;;;;2604548;46;20497;31
2023/09/01 06:45:50;;;;;;;3.97;0.83;;;20.60;99.90;;;;;;2586428;54;20051;31
2023/09/01 06:48:25;;;;;;;2.47;1.02;;;20.60;99.90;;;;;;2586305;54;20085;31
2023/09/01 06:51:00;;;;;;;1.55;0.90;;;20.80;99.90;;;;;;2586476;54;20026;31
2023/09/01 06:53:34;;;;;;;3.10;1.15;;;20.90;99.90;;;;;;2586520;54;20736;31
2023/09/01 06:56:07;;;;;;;1.60;0.80;;;21.00;99.90;;;;;;2586471;54;21073;31
2023/09/01 06:58:41;;;;;;;2.80;1.05;;;21.10;99.90;;;;;;2586273;54;20935;31
2023/09/01 07:01:15;;;;;;;2.50;0.90;;;21.30;99.90;;;;;;2586423;54;20797;31
2023/09/01 07:03:52;;;;;;;2.30;0.85;;;21.40;99.90;;;;;;2605124;46;20030;31
2023/09/01 07:06:24;;;;;;;1.77;1.07;;;21.80;99.90;;;;;;2586437;54;20839;31
2023/09/01 07:08:56;;;;;;;2.10;0.90;;;21.90;99.90;;;;;;2586375;54;20027;31
2023/09/01 07:11:29;;;;;;;1.08;0.60;;;22.00;99.90;;;;;;2604990;46;20905;31
2023/09/01 07:14:02;;;;;;;2.23;0.97;;;22.10;99.90;;;;;;2702455;39;20393;31
2023/09/01 07:16:34;;;;;;;1.50;0.83;;;22.20;99.90;;;;;;2605294;46;20250;31
2023/09/01 07:19:10;;;;;;;2.47;1.00;;;22.20;99.90;;;;;;2586358;54;20033;31
2023/09/01 07:21:44;;;;;;;4.18;1.73;;;22.40;99.90;;;;;;2586245;54;19941;31
2023/09/01 07:24:16;;;;;;;3.25;0.90;;;22.60;99.90;;;;;;2586321;54;20030;31
2023/09/01 07:26:49;;;;;;;2.00;0.90;;;22.70;99.90;;;;;;2586136;54;20922;31
2023/09/01 07:29:22;;;;;;;2.50;0.90;;;22.80;99.90;;;;;;2586351;54;20157;31
2023/09/01 07:31:54;;;;;;;1.40;0.73;;;23.00;99.90;;;;;;2586119;54;20030;31
2023/09/01 07:34:29;;;;;;;2.05;0.88;;;23.30;99.90;;;;;;2586189;54;20885;31
2023/09/01 07:37:01;;;;;;;2.70;1.00;;;23.50;99.90;;;;;;2586123;54;20051;31
2023/09/01 07:39:35;;;;;;;3.60;1.00;;;23.60;99.90;;;;;;2586070;54;20033;31
2023/09/01 07:42:08;;;;;;;2.37;1.10;;;23.70;99.90;;;;;;2604556;46;20394;31
2023/09/01 07:44:40;;;;;;;3.05;1.20;;;23.80;99.90;;;;;;2586079;54;20060;31
2023/09/01 07:47:15;;;;;;;1.30;0.80;;;24.00;99.90;;;;;;2586477;54;20073;31
2023/09/01 07:49:50;;;;;;;2.33;0.73;;;24.10;99.90;;;;;;2586284;54;20886;31
2023/09/01 07:52:21;;;;;;;2.13;1.20;;;24.30;99.90;;;;;;2586211;54;20030;31
2023/09/01 07:54:54;;;;;;;1.30;0.68;;;24.40;99.90;;;;;;2585874;54;20889;31
2023/09/01 07:57:28;;;;;;;1.75;0.80;;;24.60;99.90;;;;;;2586194;54;20030;31
2023/09/01 08:00:00;;;;;;;2.40;0.85;;;24.80;99.90;;;;;;2585720;54;20037;31
2023/09/01 08:02:46;;;;;;;2.85;0.90;;;24.80;99.90;;;;;;2586387;54;20030;31
2023/09/01 08:05:20;;;;;;;2.53;0.90;;;24.90;99.90;;;;;;2586082;54;20030;31
2023/09/01 08:07:54;;;;;;;1.60;0.80;;;24.80;99.90;;;;;;2586078;54;20081;31
2023/09/01 08:10:26;;;;;;;1.73;0.77;;;24.90;99.90;;;;;;2586095;54;20867;31
2023/09/01 08:13:00;;;;;;;2.33;0.82;;;25.00;99.90;;;;;;2586050;54;20864;31
2023/09/01 08:15:32;;;;;;;1.63;0.60;;;25.00;99.90;;;;;;2585949;54;20033;31
2023/09/01 08:18:06;;;;;;;2.00;0.80;;;24.90;99.90;;;;;;2586195;54;19935;31
2023/09/01 08:20:42;;;;;;;1.63;0.73;;;25.10;99.90;;;;;;2585904;54;19935;31
2023/09/01 08:23:15;;;;;;;1.58;0.85;;;25.20;99.90;;;;;;2586045;54;20847;31
2023/09/01 08:25:47;;;;;;;3.30;0.60;;;25.20;99.90;;;;;;2585988;54;20053;31
2023/09/01 08:28:20;;;;;;;1.75;0.68;;;25.30;99.90;;;;;;2586134;54;20027;31
2023/09/01 08:30:53;;;;;;;3.03;0.70;;;25.40;99.90;;;;;;2586147;54;20893;31
2023/09/01 08:33:25;;;;;;;1.30;0.95;;;25.60;99.90;;;;;;2585988;54;20041;31
2023/09/01 08:36:03;;;;;;;1.65;0.80;;;25.80;99.90;;;;;;2586085;54;20937;31
2023/09/01 08:38:35;;;;;;;2.23;0.87;;;25.80;99.90;;;;;;2604929;46;20034;31
2023/09/01 08:41:09;;;;;;;2.65;1.00;;;25.80;99.90;;;;;;2586258;54;20910;31
2023/09/01 08:43:43;;;;;;;2.80;0.70;;;25.90;99.90;;;;;;2604601;46;20081;31
2023/09/01 08:46:16;;;;;;;3.45;0.50;;;26.00;99.90;;;;;;2585980;54;20830;31
2023/09/01 08:48:51;;;;;;;1.95;0.90;;;26.20;99.90;;;;;;2586190;54;20026;31
2023/09/01 08:51:26;;;;;;;3.70;0.90;;;26.30;99.90;;;;;;2585913;54;20026;31
2023/09/01 08:53:58;;;;;;;3.27;1.00;;;26.40;99.90;;;;;;2585861;54;20064;31
2023/09/01 08:56:32;;;;;;;3.20;0.85;;;26.50;99.90;;;;;;2586030;54;20975;31
2023/09/01 08:59:05;;;;;;;2.47;0.90;;;26.60;99.90;;;;;;2604363;46;20861;31
2023/09/01 09:01:38;;;;;;;2.20;0.95;;;26.50;99.90;;;;;;2604411;46;20026;31
2023/09/01 09:04:11;;;;;;;3.85;1.20;;;26.50;99.90;;;;;;2586029;54;20034;31
2023/09/01 09:06:45;;;;;;;4.38;1.00;;;26.40;99.90;;;;;;2586013;54;19935;31
2023/09/01 09:09:21;;;;;;;2.55;1.00;;;26.50;99.90;;;;;;2604345;46;20033;31
2023/09/01 09:11:58;;;;;;;1.43;0.73;;;26.70;99.90;;;;;;2586133;54;20863;31
2023/09/01 09:14:32;;;;;;;2.78;0.90;;;26.80;99.80;;;;;;2585801;54;21104;31
2023/09/01 09:17:15;;;;;;;4.63;1.07;;;26.90;99.90;;;;;;2604444;47;20061;31
2023/09/01 09:19:59;;;;;;;5.10;1.15;;;26.70;98.60;;;;;;2585978;54;20961;31
2023/09/01 09:22:33;;;;;;;2.10;0.70;;;26.70;99.60;;;;;;2604492;47;20034;31
2023/09/01 09:25:07;;;;;;;1.65;0.85;;;26.70;99.70;;;;;;2586487;54;20929;31
2023/09/01 09:27:41;;;;;;;4.45;1.15;;;26.60;99.90;;;;;;2586553;54;21009;31
2023/09/01 09:30:15;;;;;;;2.78;1.20;;;26.60;98.70;;;;;;2586651;54;20903;31
2023/09/01 09:32:48;;;;;;;2.90;1.10;;;26.60;99.90;;;;;;2586701;54;20037;31
2023/09/01 09:35:24;;;;;;;3.67;1.00;;;26.60;99.90;;;;;;2586733;54;20750;31
2023/09/01 09:38:02;;;;;;;1.50;0.80;;;26.80;99.90;;;;;;2586532;54;20838;31
2023/09/01 09:40:34;;;;;;;1.83;0.90;;;26.80;99.20;;;;;;2586699;54;20031;31
2023/09/01 09:43:06;;;;;;;2.60;0.80;;;26.90;99.70;;;;;;2586632;54;20056;31
2023/09/01 09:45:39;;;;;;;1.70;0.80;;;26.90;98.50;;;;;;2586572;54;20119;31
2023/09/01 09:48:13;;;;;;;3.50;1.00;;;26.90;98.10;;;;;;2586609;54;20034;31
2023/09/01 09:50:47;;;;;;;3.77;1.00;;;26.80;97.50;;;;;;2604782;46;21031;31
2023/09/01 09:53:25;;;;;;;2.90;0.98;;;26.80;98.40;;;;;;2586717;54;21286;31
2023/09/01 09:56:00;;;;;;;1.77;0.70;;;26.80;97.50;;;;;;2586474;54;20043;31
2023/09/01 09:58:36;;;;;;;1.40;0.65;;;26.90;97.60;;;;;;2586456;54;20242;31
2023/09/01 10:01:12;;;;;;;2.90;0.80;;;26.80;96.40;;;;;;2586550;54;20030;31
2023/09/01 10:03:44;;;;;;;2.70;0.80;;;26.60;97.20;;;;;;2586596;54;20736;31
2023/09/01 10:06:18;;;;;;;2.10;0.80;;;26.70;97.70;;;;;;2605066;46;20056;31
2023/09/01 10:08:52;;;;;;;3.35;0.90;;;26.80;96.60;;;;;;2586510;54;20085;31
2023/09/01 10:11:23;;;;;;;2.70;0.98;;;26.80;96.50;;;;;;2586611;54;20856;31
2023/09/01 10:13:56;;;;;;;2.17;0.70;;;27.00;97.60;;;;;;2604872;46;20106;31
2023/09/01 10:16:28;;;;;;;3.08;0.90;;;26.90;97.50;;;;;;2586364;54;20886;31
2023/09/01 10:19:02;;;;;;;4.32;1.02;;;26.90;96.60;;;;;;2586629;54;20031;31
2023/09/01 10:21:33;;;;;;;2.00;0.88;;;27.00;98.20;;;;;;2586133;54;20867;31
2023/09/01 10:24:14;;;;;;;2.20;0.93;;;27.00;97.50;;;;;;2586508;54;20856;31
2023/09/01 10:26:46;;;;;;;1.65;0.80;;;27.00;94.70;;;;;;2586532;54;20741;31
2023/09/01 10:29:33;;;;;;;2.30;0.82;;;26.90;94.70;;;;;;2586543;54;20031;31
2023/09/01 10:32:20;;;;;;;2.05;0.80;;;27.00;96.10;;;;;;2605197;46;20022;31
2023/09/01 10:34:54;;;;;;;2.50;1.02;;;26.90;94.10;;;;;;2586362;54;20030;31
2023/09/01 10:37:30;;;;;;;2.80;1.05;;;26.80;93.50;;;;;;2604871;46;20874;31
2023/09/01 10:40:10;;;;;;;1.80;0.80;;;26.80;96.10;;;;;;2586482;54;20856;31
2023/09/01 10:42:43;;;;;;;2.70;0.70;;;26.90;94.90;;;;;;2586260;54;20302;31
2023/09/01 10:45:17;;;;;;;2.00;0.60;;;26.80;94.30;;;;;;2586481;54;20854;31
2023/09/01 10:47:52;;;;;;;1.33;0.70;;;26.60;94.80;;;;;;2586256;54;20376;31
2023/09/01 10:50:27;;;;;;;2.35;0.90;;;26.60;94.30;;;;;;2586313;54;20790;31
2023/09/01 10:53:32;;;;;;;2.50;0.90;;;26.60;94.70;;;;;;2585905;54;20035;31
2023/09/01 10:56:07;;;;;;;2.70;0.90;;;26.60;94.20;;;;;;2586015;54;20246;31
2023/09/01 10:59:00;;;;;;;2.40;1.00;;;26.40;93.40;;;;;;2586467;54;20888;31
2023/09/01 11:01:38;;;;;;;2.70;0.80;;;26.30;94.30;;;;;;2586404;54;20981;31
2023/09/01 11:04:35;;;;;;;3.13;0.70;;;26.30;94.20;;;;;;2604546;46;20053;31
2023/09/01 11:07:11;;;;;;;1.90;0.70;;;26.30;94.40;;;;;;2586292;54;20038;31
2023/09/01 11:09:56;;;;;;;2.50;0.68;;;26.30;94.80;;;;;;2585974;54;20249;31
2023/09/01 11:12:32;;;;;;;5.47;0.80;;;26.40;96.00;;;;;;2586224;54;19989;31
2023/09/01 11:15:09;;;;;;;1.85;0.90;;;26.30;93.50;;;;;;2604815;46;20026;31
2023/09/01 11:17:49;;;;;;;1.70;0.70;;;26.30;96.10;;;;;;2586312;54;20938;31
2023/09/01 11:20:31;;;;;;;1.80;0.80;;;26.30;94.00;;;;;;2586309;54;20053;31
2023/09/01 11:23:06;;;;;;;3.25;0.90;;;26.30;93.00;;;;;;2604871;46;20045;31
2023/09/01 11:25:42;;;;;;;4.20;0.80;;;26.20;95.30;;;;;;2586313;54;20108;31
2023/09/01 11:28:16;;;;;;;1.75;0.80;;;26.20;95.10;;;;;;2586489;54;20286;31
2023/09/01 11:30:59;;;;;;;2.80;1.27;;;26.20;94.20;;;;;;2586091;54;20089;31
2023/09/01 11:33:34;;;;;;;2.05;0.82;;;26.00;93.40;;;;;;2586391;54;20332;31
2023/09/01 11:36:10;;;;;;;2.80;0.88;;;25.90;94.20;;;;;;2586211;54;20030;31
2023/09/01 11:38:45;;;;;;;1.60;0.77;;;25.80;94.10;;;;;;2586354;54;20661;31
2023/09/01 11:41:21;;;;;;;2.38;0.75;;;25.80;94.00;;;;;;2586209;54;20855;31
2023/09/01 11:43:54;;;;;;;2.05;0.70;;;25.80;93.70;;;;;;2586167;54;20979;31
2023/09/01 11:46:36;;;;;;;4.00;1.00;;;25.70;93.10;;;;;;2683770;39;21476;31
2023/09/01 11:49:12;;;;;;;3.25;1.00;;;25.70;95.10;;;;;;2586324;54;20026;31
2023/09/01 11:51:44;;;;;;;2.30;0.83;;;25.60;96.60;;;;;;2586392;54;20847;31
2023/09/01 11:54:19;;;;;;;2.10;0.83;;;25.60;98.00;;;;;;2586433;54;20038;31
2023/09/01 11:56:52;;;;;;;1.80;0.70;;;25.70;96.60;;;;;;2586379;54;20238;31
2023/09/01 11:59:27;;;;;;;2.20;0.80;;;25.70;97.70;;;;;;2586298;54;21080;31
2023/09/01 12:02:03;;;;;;;2.20;0.75;;;25.80;96.80;;;;;;2586068;54;20261;31
2023/09/01 12:04:37;;;;;;;4.55;0.93;;;25.80;96.30;;;;;;2683798;39;20367;31
2023/09/01 12:07:09;;;;;;;2.00;0.95;;;25.70;97.10;;;;;;2586338;54;20933;31
2023/09/01 12:09:41;;;;;;;1.25;0.70;;;25.70;97.20;;;;;;2586122;54;20057;31
2023/09/01 12:12:15;;;;;;;2.88;0.73;;;25.70;96.00;;;;;;2585849;54;20069;31
2023/09/01 12:14:46;;;;;;;1.65;0.85;;;25.70;96.50;;;;;;2586275;54;21400;31
2023/09/01 12:17:23;;;;;;;2.63;0.90;;;25.60;96.30;;;;;;2586158;54;20027;31
2023/09/01 12:19:57;;;;;;;1.67;0.73;;;25.30;94.80;;;;;;2604737;46;20030;31
2023/09/01 12:22:31;;;;;;;1.70;0.85;;;25.10;96.50;;;;;;2586283;54;20733;31
2023/09/01 12:25:03;;;;;;;1.55;0.60;;;25.00;96.50;;;;;;2586139;54;20047;31
2023/09/01 12:27:35;;;;;;;3.47;1.00;;;24.90;96.90;;;;;;2586165;54;20026;31
2023/09/01 12:30:09;;;;;;;2.78;0.80;;;24.80;97.30;;;;;;2586132;54;20030;31
2023/09/01 12:32:47;;;;;;;2.10;0.90;;;24.60;98.20;;;;;;2683900;39;21298;31
2023/09/01 12:35:19;;;;;;;3.17;1.20;;;24.40;98.60;;;;;;2586105;54;20766;31
2023/09/01 12:37:52;;;;;;;2.30;1.10;;;24.40;99.90;;;;;;2773030;31;20635;31
2023/09/01 12:40:24;;;;;;;3.58;0.80;;;24.50;98.90;;;;;;2585895;54;20093;31
2023/09/01 12:42:56;;;;;;;4.38;1.13;;;24.60;98.80;;;;;;2586138;54;20763;31
2023/09/01 12:45:30;;;;;;;2.75;0.70;;;24.70;96.60;;;;;;2585993;54;20085;31
2023/09/01 12:48:05;;;;;;;2.05;1.00;;;24.90;97.60;;;;;;2585950;54;20045;31
2023/09/01 12:50:38;;;;;;;2.70;1.00;;;25.00;97.40;;;;;;2586046;54;20064;31
2023/09/01 12:53:11;;;;;;;1.70;0.70;;;25.00;97.50;;;;;;2585887;54;20033;31
2023/09/01 12:55:43;;;;;;;5.90;1.10;;;24.90;98.20;;;;;;2586144;54;20745;31
2023/09/01 12:58:16;;;;;;;2.85;0.90;;;24.90;98.40;;;;;;2585856;54;20052;31
2023/09/01 13:00:49;;;;;;;2.42;0.93;;;24.90;99.90;;;;;;2586020;54;20860;31
2023/09/01 13:03:24;;;;;;;1.42;0.80;;;24.90;99.50;;;;;;2586015;54;20082;31
2023/09/01 13:05:56;;;;;;;3.72;0.98;;;24.90;97.90;;;;;;2586078;54;20034;31
2023/09/01 13:08:29;;;;;;;2.03;1.00;;;24.80;98.30;;;;;;2585600;54;20030;31
2023/09/01 13:11:00;;;;;;;1.85;0.98;;;24.60;98.40;;;;;;2604586;46;20027;31
2023/09/01 13:13:35;;;;;;;3.75;1.10;;;24.60;99.00;;;;;;2604207;46;20030;31
2023/09/01 13:16:09;;;;;;;2.13;0.80;;;24.70;98.80;;;;;;2586138;54;20037;31
2023/09/01 13:18:47;;;;;;;3.53;1.37;;;24.80;98.40;;;;;;2586139;54;19957;31
2023/09/01 13:21:19;;;;;;;2.10;0.85;;;24.80;98.80;;;;;;2683521;39;20362;31
2023/09/01 13:23:55;;;;;;;2.40;1.10;;;24.80;98.80;;;;;;2604353;47;20757;31
2023/09/01 13:26:29;;;;;;;3.20;1.15;;;24.70;98.40;;;;;;2586098;54;20030;31
2023/09/01 13:29:02;;;;;;;1.50;1.13;;;24.70;99.70;;;;;;2604088;47;20026;31
2023/09/01 13:31:35;;;;;;;4.75;1.20;;;24.70;99.70;;;;;;2585710;54;20830;31
2023/09/01 13:34:10;;;;;;;3.10;0.90;;;24.80;98.80;;;;;;2585730;54;20860;31
2023/09/01 13:36:43;;;;;;;4.72;1.10;;;24.80;98.30;;;;;;2585901;54;20737;31